Time,TemperatureF,DewpointF,PressureIn,WindDirection,WindDirectionDegrees,WindSpeedMPH,WindSpeedGustMPH,Humidity,HourlyPrecipIn,Conditions,Clouds,dailyrainin,SolarRadiationWatts/m^2,SoftwareType,DateUTC
2013-03-20 00:23:00,16.0,12.0,-100.00,WNW,298,7.0,16.0,85,0.00,,,0.00,1.000000,,2013-03-20 04:23:00,
2013-03-20 00:32:00,16.0,12.0,-100.00,WNW,298,7.0,16.0,85,0.00,,,0.00,1.000000,,2013-03-20 04:32:00,
2013-03-20 00:43:00,16.0,12.0,-100.00,WNW,298,7.0,16.0,85,0.00,,,0.00,1.000000,,2013-03-20 04:43:00,
2013-03-20 00:52:00,16.0,12.0,-100.00,WNW,298,7.0,16.0,85,0.00,,,0.00,1.000000,,2013-03-20 04:52:00,
2013-03-20 01:23:00,16.0,13.0,-100.00,WNW,289,8.0,16.0,86,0.00,,,0.00,1.000000,,2013-03-20 05:23:00,
2013-03-20 01:32:00,16.0,13.0,-100.00,WNW,289,8.0,16.0,86,0.00,,,0.00,1.000000,,2013-03-20 05:32:00,
2013-03-20 01:42:00,16.0,13.0,-100.00,WNW,289,8.0,16.0,86,0.00,,,0.00,1.000000,,2013-03-20 05:42:00,
2013-03-20 01:52:00,16.0,13.0,-100.00,WNW,289,8.0,16.0,86,0.00,,,0.00,1.000000,,2013-03-20 05:52:00,
2013-03-20 02:22:00,15.0,11.0,-100.00,WNW,294,7.0,17.0,85,0.00,,,0.00,1.000000,,2013-03-20 06:22:00,
2013-03-20 02:32:00,15.0,11.0,-100.00,WNW,294,7.0,17.0,85,0.00,,,0.00,1.000000,,2013-03-20 06:32:00,
2013-03-20 02:42:00,15.0,11.0,-100.00,WNW,294,7.0,17.0,85,0.00,,,0.00,1.000000,,2013-03-20 06:42:00,
2013-03-20 02:52:00,15.0,11.0,-100.00,WNW,294,7.0,17.0,85,0.00,,,0.00,1.000000,,2013-03-20 06:52:00,
2013-03-20 03:22:00,15.0,12.0,-100.00,WNW,300,6.0,17.0,86,0.00,,,0.00,1.000000,,2013-03-20 07:22:00,
2013-03-20 03:32:00,15.0,12.0,-100.00,WNW,300,6.0,17.0,86,0.00,,,0.00,1.000000,,2013-03-20 07:32:00,
2013-03-20 03:42:00,15.0,12.0,-100.00,WNW,300,6.0,17.0,86,0.00,,,0.00,1.000000,,2013-03-20 07:42:00,
2013-03-20 03:52:00,15.0,12.0,-100.00,WNW,300,6.0,17.0,86,0.00,,,0.00,1.000000,,2013-03-20 07:52:00,
2013-03-20 04:22:00,15.0,11.0,-100.00,NW,308,7.0,13.0,85,0.00,,,0.00,1.000000,,2013-03-20 08:22:00,
2013-03-20 04:32:00,15.0,11.0,-100.00,NW,308,7.0,13.0,85,0.00,,,0.00,1.000000,,2013-03-20 08:32:00,
2013-03-20 04:42:00,15.0,11.0,-100.00,NW,308,7.0,13.0,85,0.00,,,0.00,1.000000,,2013-03-20 08:42:00,
2013-03-20 04:52:00,15.0,11.0,-100.00,NW,308,7.0,13.0,85,0.00,,,0.00,1.000000,,2013-03-20 08:52:00,
2013-03-20 05:22:00,14.0,10.0,-100.00,NW,304,6.0,13.0,85,0.00,,,0.00,1.000000,,2013-03-20 09:22:00,
2013-03-20 05:33:00,14.0,10.0,-100.00,NW,304,6.0,13.0,85,0.00,,,0.00,1.000000,,2013-03-20 09:33:00,
2013-03-20 05:43:00,14.0,10.0,-100.00,NW,304,6.0,13.0,85,0.00,,,0.00,1.000000,,2013-03-20 09:43:00,
2013-03-20 05:52:00,14.0,10.0,-100.00,NW,304,6.0,13.0,85,0.00,,,0.00,1.000000,,2013-03-20 09:52:00,
2013-03-20 06:23:00,14.0,11.0,-100.00,NW,309,5.0,14.0,86,0.00,,,0.00,1.000000,,2013-03-20 10:23:00,
2013-03-20 06:32:00,14.0,11.0,-100.00,NW,309,5.0,14.0,86,0.00,,,0.00,1.000000,,2013-03-20 10:32:00,
2013-03-20 06:42:00,14.0,11.0,-100.00,NW,309,5.0,14.0,86,0.00,,,0.00,1.000000,,2013-03-20 10:42:00,
2013-03-20 06:52:00,14.0,11.0,-100.00,NW,309,5.0,14.0,86,0.00,,,0.00,1.000000,,2013-03-20 10:52:00,
2013-03-20 07:22:00,13.0,9.0,-100.00,NW,314,4.0,11.0,85,0.00,,,0.00,1.000000,,2013-03-20 11:22:00,
2013-03-20 07:32:00,13.0,9.0,-100.00,NW,314,4.0,11.0,85,0.00,,,0.00,1.000000,,2013-03-20 11:32:00,
2013-03-20 07:42:00,13.0,9.0,-100.00,NW,314,4.0,11.0,85,0.00,,,0.00,1.000000,,2013-03-20 11:42:00,
2013-03-20 07:52:00,13.0,9.0,-100.00,NW,314,4.0,11.0,85,0.00,,,0.00,1.000000,,2013-03-20 11:52:00,
2013-03-20 08:22:00,12.0,8.0,-100.00,NW,315,5.0,12.0,84,0.00,,,0.00,1.000000,,2013-03-20 12:22:00,
2013-03-20 08:32:00,12.0,8.0,-100.00,NW,315,5.0,12.0,84,0.00,,,0.00,1.000000,,2013-03-20 12:32:00,
2013-03-20 08:42:00,12.0,8.0,-100.00,NW,315,5.0,12.0,84,0.00,,,0.00,1.000000,,2013-03-20 12:42:00,
2013-03-20 08:52:00,12.0,8.0,-100.00,NW,315,5.0,12.0,84,0.00,,,0.00,1.000000,,2013-03-20 12:52:00,
2013-03-20 09:22:00,12.0,8.0,-100.00,NW,310,5.0,15.0,83,0.00,,,0.00,18.000000,,2013-03-20 13:22:00,
2013-03-20 09:32:00,12.0,8.0,-100.00,NW,310,5.0,15.0,83,0.00,,,0.00,18.000000,,2013-03-20 13:32:00,
2013-03-20 09:42:00,12.0,8.0,-100.00,NW,310,5.0,15.0,83,0.00,,,0.00,18.000000,,2013-03-20 13:42:00,
2013-03-20 09:52:00,12.0,8.0,-100.00,NW,310,5.0,15.0,83,0.00,,,0.00,18.000000,,2013-03-20 13:52:00,
2013-03-20 10:23:00,14.0,10.0,-100.00,NW,321,5.0,11.0,82,0.00,,,0.00,69.000000,,2013-03-20 14:23:00,
2013-03-20 10:33:00,14.0,10.0,-100.00,NW,321,5.0,11.0,82,0.00,,,0.00,69.000000,,2013-03-20 14:33:00,
2013-03-20 10:42:00,14.0,10.0,-100.00,NW,321,5.0,11.0,82,0.00,,,0.00,69.000000,,2013-03-20 14:42:00,
2013-03-20 10:52:00,14.0,10.0,-100.00,NW,321,5.0,11.0,82,0.00,,,0.00,69.000000,,2013-03-20 14:52:00,
2013-03-20 11:22:00,15.0,10.0,-100.00,NW,314,6.0,15.0,80,0.00,,,0.00,111.000000,,2013-03-20 15:22:00,
2013-03-20 11:33:00,15.0,10.0,-100.00,NW,314,6.0,15.0,80,0.00,,,0.00,111.000000,,2013-03-20 15:33:00,
2013-03-20 11:43:00,15.0,10.0,-100.00,NW,314,6.0,15.0,80,0.00,,,0.00,111.000000,,2013-03-20 15:43:00,
2013-03-20 11:52:00,15.0,10.0,-100.00,NW,314,6.0,15.0,80,0.00,,,0.00,111.000000,,2013-03-20 15:52:00,
2013-03-20 12:23:00,16.0,11.0,-100.00,NW,317,6.0,14.0,79,0.00,,,0.00,147.000000,,2013-03-20 16:23:00,
2013-03-20 12:33:00,16.0,11.0,-100.00,NW,317,6.0,14.0,79,0.00,,,0.00,147.000000,,2013-03-20 16:33:00,
2013-03-20 12:43:00,16.0,11.0,-100.00,NW,317,6.0,14.0,79,0.00,,,0.00,147.000000,,2013-03-20 16:43:00,
2013-03-20 12:52:00,16.0,11.0,-100.00,NW,317,6.0,14.0,79,0.00,,,0.00,147.000000,,2013-03-20 16:52:00,
2013-03-20 13:22:00,18.0,13.0,-100.00,NW,313,5.0,12.0,79,0.00,,,0.00,156.000000,,2013-03-20 17:22:00,
2013-03-20 13:32:00,18.0,13.0,-100.00,NW,313,5.0,12.0,79,0.00,,,0.00,156.000000,,2013-03-20 17:32:00,
2013-03-20 13:42:00,18.0,13.0,-100.00,NW,313,5.0,12.0,79,0.00,,,0.00,156.000000,,2013-03-20 17:42:00,
2013-03-20 13:52:00,18.0,13.0,-100.00,NW,313,5.0,12.0,79,0.00,,,0.00,156.000000,,2013-03-20 17:52:00,
2013-03-20 14:22:00,18.0,12.0,-100.00,NW,326,5.0,14.0,77,0.00,,,0.00,182.000000,,2013-03-20 18:22:00,
2013-03-20 14:33:00,18.0,12.0,-100.00,NW,326,5.0,14.0,77,0.00,,,0.00,182.000000,,2013-03-20 18:33:00,
2013-03-20 14:42:00,18.0,12.0,-100.00,NW,326,5.0,14.0,77,0.00,,,0.00,182.000000,,2013-03-20 18:42:00,
2013-03-20 14:52:00,18.0,12.0,-100.00,NW,326,5.0,14.0,77,0.00,,,0.00,182.000000,,2013-03-20 18:52:00,
2013-03-20 15:22:00,21.0,16.0,-100.00,NW,310,5.0,12.0,79,0.00,,,0.00,215.000000,,2013-03-20 19:22:00,
2013-03-20 15:32:00,21.0,16.0,-100.00,NW,310,5.0,12.0,79,0.00,,,0.00,215.000000,,2013-03-20 19:32:00,
2013-03-20 15:42:00,21.0,16.0,-100.00,NW,310,5.0,12.0,79,0.00,,,0.00,215.000000,,2013-03-20 19:42:00,
2013-03-20 15:52:00,21.0,16.0,-100.00,NW,310,5.0,12.0,79,0.00,,,0.00,215.000000,,2013-03-20 19:52:00,
2013-03-20 16:22:00,19.0,13.0,-100.00,NW,308,7.0,14.0,77,0.00,,,0.00,285.000000,,2013-03-20 20:22:00,
2013-03-20 16:32:00,19.0,13.0,-100.00,NW,308,7.0,14.0,77,0.00,,,0.00,285.000000,,2013-03-20 20:32:00,
2013-03-20 16:42:00,19.0,13.0,-100.00,NW,308,7.0,14.0,77,0.00,,,0.00,285.000000,,2013-03-20 20:42:00,
2013-03-20 16:52:00,19.0,13.0,-100.00,NW,308,7.0,14.0,77,0.00,,,0.00,285.000000,,2013-03-20 20:52:00,
2013-03-20 17:22:00,18.0,11.0,-100.00,NNW,333,8.0,17.0,73,0.00,,,0.00,323.000000,,2013-03-20 21:22:00,
2013-03-20 17:33:00,18.0,11.0,-100.00,NNW,333,8.0,17.0,73,0.00,,,0.00,323.000000,,2013-03-20 21:33:00,
2013-03-20 17:42:00,18.0,11.0,-100.00,NNW,333,8.0,17.0,73,0.00,,,0.00,323.000000,,2013-03-20 21:42:00,
2013-03-20 17:52:00,18.0,11.0,-100.00,NNW,333,8.0,17.0,73,0.00,,,0.00,323.000000,,2013-03-20 21:52:00,
2013-03-20 18:23:00,17.0,10.0,-100.00,NW,304,5.0,13.0,73,0.00,,,0.00,165.000000,,2013-03-20 22:23:00,
2013-03-20 18:33:00,17.0,10.0,-100.00,NW,304,5.0,13.0,73,0.00,,,0.00,165.000000,,2013-03-20 22:33:00,
2013-03-20 18:42:00,17.0,10.0,-100.00,NW,304,5.0,13.0,73,0.00,,,0.00,165.000000,,2013-03-20 22:42:00,
2013-03-20 18:52:00,17.0,10.0,-100.00,NW,304,5.0,13.0,73,0.00,,,0.00,165.000000,,2013-03-20 22:52:00,
2013-03-20 19:22:00,16.0,9.0,-100.00,NNW,330,5.0,12.0,75,0.00,,,0.00,104.000000,,2013-03-20 23:22:00,
2013-03-20 19:32:00,16.0,9.0,-100.00,NNW,330,5.0,12.0,75,0.00,,,0.00,104.000000,,2013-03-20 23:32:00,
2013-03-20 19:42:00,16.0,9.0,-100.00,NNW,330,5.0,12.0,75,0.00,,,0.00,104.000000,,2013-03-20 23:42:00,
2013-03-20 19:52:00,16.0,9.0,-100.00,NNW,330,5.0,12.0,75,0.00,,,0.00,104.000000,,2013-03-20 23:52:00,
2013-03-20 20:23:00,15.0,9.0,-100.00,NW,307,5.0,14.0,78,0.00,,,0.00,25.000000,,2013-03-21 00:23:00,
2013-03-20 20:33:00,15.0,9.0,-100.00,NW,307,5.0,14.0,78,0.00,,,0.00,25.000000,,2013-03-21 00:33:00,
2013-03-20 20:42:00,15.0,9.0,-100.00,NW,307,5.0,14.0,78,0.00,,,0.00,25.000000,,2013-03-21 00:42:00,
2013-03-20 20:52:00,15.0,9.0,-100.00,NW,307,5.0,14.0,78,0.00,,,0.00,25.000000,,2013-03-21 00:52:00,
2013-03-20 21:22:00,15.0,10.0,-100.00,WNW,300,3.0,10.0,79,0.00,,,0.00,2.000000,,2013-03-21 01:22:00,
2013-03-20 21:32:00,15.0,10.0,-100.00,WNW,300,3.0,10.0,79,0.00,,,0.00,2.000000,,2013-03-21 01:32:00,
2013-03-20 21:42:00,15.0,10.0,-100.00,WNW,300,3.0,10.0,79,0.00,,,0.00,2.000000,,2013-03-21 01:42:00,
2013-03-20 21:52:00,15.0,10.0,-100.00,WNW,300,3.0,10.0,79,0.00,,,0.00,2.000000,,2013-03-21 01:52:00,
2013-03-20 22:22:00,15.0,10.0,-100.00,West,273,3.0,6.0,81,0.00,,,0.00,1.000000,,2013-03-21 02:22:00,
2013-03-20 22:32:00,15.0,10.0,-100.00,West,273,3.0,6.0,81,0.00,,,0.00,1.000000,,2013-03-21 02:32:00,
2013-03-20 22:42:00,15.0,10.0,-100.00,West,273,3.0,6.0,81,0.00,,,0.00,1.000000,,2013-03-21 02:42:00,
2013-03-20 22:51:00,15.0,10.0,-100.00,West,273,3.0,6.0,81,0.00,,,0.00,1.000000,,2013-03-21 02:51:00,
2013-03-20 23:22:00,15.0,11.0,-100.00,WNW,286,2.0,6.0,84,0.00,,,0.00,1.000000,,2013-03-21 03:22:00,
2013-03-20 23:33:00,15.0,11.0,-100.00,WNW,286,2.0,6.0,84,0.00,,,0.00,1.000000,,2013-03-21 03:33:00,
2013-03-20 23:43:00,15.0,11.0,-100.00,WNW,286,2.0,6.0,84,0.00,,,0.00,1.000000,,2013-03-21 03:43:00,
2013-03-20 23:53:00,15.0,11.0,-100.00,WNW,286,2.0,6.0,84,0.00,,,0.00,1.000000,,2013-03-21 03:53:00,